sensor_id;sensor_type;location;lat;lon;timestamp;temperature;humidity
44729;DHT22;30457;53.590;9.922;2022-10-19T00:00:37;16.40;58.10
44729;DHT22;30457;53.590;9.922;2022-10-19T00:05:02;16.50;58.10
44729;DHT22;30457;53.590;9.922;2022-10-19T00:09:28;16.40;58.20
44729;DHT22;30457;53.590;9.922;2022-10-19T00:13:54;16.40;58.20
44729;DHT22;30457;53.590;9.922;2022-10-19T00:18:20;16.40;58.20
44729;DHT22;30457;53.590;9.922;2022-10-19T00:22:48;16.50;58.30
44729;DHT22;30457;53.590;9.922;2022-10-19T00:27:16;16.50;58.40
44729;DHT22;30457;53.590;9.922;2022-10-19T00:31:42;16.40;58.20
44729;DHT22;30457;53.590;9.922;2022-10-19T00:36:24;16.40;58.20
44729;DHT22;30457;53.590;9.922;2022-10-19T00:40:50;16.40;58.30
44729;DHT22;30457;53.590;9.922;2022-10-19T00:45:16;16.40;58.10
44729;DHT22;30457;53.590;9.922;2022-10-19T00:49:44;16.40;58.20
44729;DHT22;30457;53.590;9.922;2022-10-19T00:54:10;16.40;58.10
44729;DHT22;30457;53.590;9.922;2022-10-19T00:58:36;16.40;58.00
44729;DHT22;30457;53.590;9.922;2022-10-19T01:03:04;16.40;57.90
44729;DHT22;30457;53.590;9.922;2022-10-19T01:07:30;16.40;58.00
44729;DHT22;30457;53.590;9.922;2022-10-19T01:13:01;16.40;58.10
44729;DHT22;30457;53.590;9.922;2022-10-19T01:17:26;16.40;58.30
44729;DHT22;30457;53.590;9.922;2022-10-19T01:27:40;16.40;58.30
44729;DHT22;30457;53.590;9.922;2022-10-19T01:32:11;16.50;58.40
44729;DHT22;30457;53.590;9.922;2022-10-19T01:37:12;16.40;58.30
44729;DHT22;30457;53.590;9.922;2022-10-19T01:41:50;16.30;58.40
44729;DHT22;30457;53.590;9.922;2022-10-19T01:46:35;16.40;58.20
44729;DHT22;30457;53.590;9.922;2022-10-19T01:51:12;16.30;58.20
44729;DHT22;30457;53.590;9.922;2022-10-19T01:55:38;16.30;58.10
44729;DHT22;30457;53.590;9.922;2022-10-19T02:00:08;16.30;57.90
44729;DHT22;30457;53.590;9.922;2022-10-19T02:04:38;16.30;58.30
44729;DHT22;30457;53.590;9.922;2022-10-19T02:09:05;16.30;57.80
44729;DHT22;30457;53.590;9.922;2022-10-19T02:13:31;16.30;57.70
44729;DHT22;30457;53.590;9.922;2022-10-19T02:17:57;16.30;57.40
44729;DHT22;30457;53.590;9.922;2022-10-19T02:22:24;16.20;57.30
44729;DHT22;30457;53.590;9.922;2022-10-19T02:26:50;16.20;57.20
44729;DHT22;30457;53.590;9.922;2022-10-19T02:31:16;16.20;57.20
44729;DHT22;30457;53.590;9.922;2022-10-19T02:35:42;16.20;57.00
44729;DHT22;30457;53.590;9.922;2022-10-19T02:40:09;16.20;57.00
44729;DHT22;30457;53.590;9.922;2022-10-19T02:44:42;16.20;57.50
44729;DHT22;30457;53.590;9.922;2022-10-19T02:49:12;16.20;56.70
44729;DHT22;30457;53.590;9.922;2022-10-19T02:53:38;16.20;56.70
44729;DHT22;30457;53.590;9.922;2022-10-19T02:58:03;16.10;56.60
44729;DHT22;30457;53.590;9.922;2022-10-19T03:02:29;16.10;56.30
44729;DHT22;30457;53.590;9.922;2022-10-19T03:06:54;16.10;56.20
44729;DHT22;30457;53.590;9.922;2022-10-19T03:11:20;16.10;56.00
44729;DHT22;30457;53.590;9.922;2022-10-19T03:15:45;16.10;56.10
44729;DHT22;30457;53.590;9.922;2022-10-19T03:20:11;16.10;56.00
44729;DHT22;30457;53.590;9.922;2022-10-19T03:24:37;16.10;55.60
44729;DHT22;30457;53.590;9.922;2022-10-19T03:29:03;16.10;55.40
44729;DHT22;30457;53.590;9.922;2022-10-19T03:33:29;16.10;55.80
44729;DHT22;30457;53.590;9.922;2022-10-19T03:37:54;16.00;55.70
44729;DHT22;30457;53.590;9.922;2022-10-19T03:42:20;16.00;55.70
44729;DHT22;30457;53.590;9.922;2022-10-19T03:46:45;16.00;55.80
44729;DHT22;30457;53.590;9.922;2022-10-19T03:51:13;16.00;55.80
44729;DHT22;30457;53.590;9.922;2022-10-19T03:55:39;16.00;55.80
44729;DHT22;30457;53.590;9.922;2022-10-19T04:00:06;16.00;55.80
44729;DHT22;30457;53.590;9.922;2022-10-19T04:04:37;16.00;56.10
44729;DHT22;30457;53.590;9.922;2022-10-19T04:09:04;16.00;55.70
44729;DHT22;30457;53.590;9.922;2022-10-19T04:13:30;16.00;56.00
44729;DHT22;30457;53.590;9.922;2022-10-19T04:17:55;16.00;55.80
44729;DHT22;30457;53.590;9.922;2022-10-19T04:22:21;16.00;55.90
44729;DHT22;30457;53.590;9.922;2022-10-19T04:26:49;15.90;55.80
44729;DHT22;30457;53.590;9.922;2022-10-19T04:31:15;15.90;56.10
44729;DHT22;30457;53.590;9.922;2022-10-19T04:35:40;15.90;56.10
44729;DHT22;30457;53.590;9.922;2022-10-19T04:40:06;15.90;56.10
44729;DHT22;30457;53.590;9.922;2022-10-19T04:44:32;15.90;56.10
44729;DHT22;30457;53.590;9.922;2022-10-19T04:48:58;15.90;56.00
44729;DHT22;30457;53.590;9.922;2022-10-19T04:53:24;15.90;56.10
44729;DHT22;30457;53.590;9.922;2022-10-19T04:57:49;15.90;56.30
44729;DHT22;30457;53.590;9.922;2022-10-19T05:02:15;15.90;56.40
44729;DHT22;30457;53.590;9.922;2022-10-19T05:06:40;15.90;56.40
44729;DHT22;30457;53.590;9.922;2022-10-19T05:11:11;15.90;56.40
44729;DHT22;30457;53.590;9.922;2022-10-19T05:15:38;15.90;56.50
44729;DHT22;30457;53.590;9.922;2022-10-19T05:20:04;15.90;56.50
44729;DHT22;30457;53.590;9.922;2022-10-19T05:24:30;15.90;56.60
44729;DHT22;30457;53.590;9.922;2022-10-19T05:28:58;15.90;56.50
44729;DHT22;30457;53.590;9.922;2022-10-19T05:33:25;15.90;56.40
44729;DHT22;30457;53.590;9.922;2022-10-19T05:37:54;15.90;56.30
44729;DHT22;30457;53.590;9.922;2022-10-19T05:42:20;15.90;56.40
44729;DHT22;30457;53.590;9.922;2022-10-19T05:46:46;15.90;56.50
44729;DHT22;30457;53.590;9.922;2022-10-19T05:51:14;15.90;56.50
44729;DHT22;30457;53.590;9.922;2022-10-19T05:55:40;15.90;56.40
44729;DHT22;30457;53.590;9.922;2022-10-19T06:00:06;15.90;56.40
44729;DHT22;30457;53.590;9.922;2022-10-19T06:04:37;15.90;56.30
44729;DHT22;30457;53.590;9.922;2022-10-19T06:09:03;15.90;56.20
44729;DHT22;30457;53.590;9.922;2022-10-19T06:13:28;15.90;56.90
44729;DHT22;30457;53.590;9.922;2022-10-19T06:17:54;15.90;56.40
44729;DHT22;30457;53.590;9.922;2022-10-19T06:22:19;15.90;56.40
44729;DHT22;30457;53.590;9.922;2022-10-19T06:26:46;16.00;56.80
44729;DHT22;30457;53.590;9.922;2022-10-19T06:31:13;15.90;56.40
44729;DHT22;30457;53.590;9.922;2022-10-19T06:35:39;16.00;56.50
44729;DHT22;30457;53.590;9.922;2022-10-19T06:40:08;16.00;56.50
44729;DHT22;30457;53.590;9.922;2022-10-19T06:44:34;16.00;56.60
44729;DHT22;30457;53.590;9.922;2022-10-19T06:49:00;16.10;56.60
44729;DHT22;30457;53.590;9.922;2022-10-19T06:53:26;16.10;56.50
44729;DHT22;30457;53.590;9.922;2022-10-19T06:57:53;16.10;56.70
44729;DHT22;30457;53.590;9.922;2022-10-19T07:02:20;16.10;56.60
44729;DHT22;30457;53.590;9.922;2022-10-19T07:06:45;16.10;56.60
44729;DHT22;30457;53.590;9.922;2022-10-19T07:11:14;16.20;56.70
44729;DHT22;30457;53.590;9.922;2022-10-19T07:15:40;16.30;56.90
44729;DHT22;30457;53.590;9.922;2022-10-19T07:20:07;16.40;57.20
44729;DHT22;30457;53.590;9.922;2022-10-19T07:24:32;16.50;57.30
44729;DHT22;30457;53.590;9.922;2022-10-19T07:28:59;16.60;57.20
44729;DHT22;30457;53.590;9.922;2022-10-19T07:33:24;16.80;56.90
44729;DHT22;30457;53.590;9.922;2022-10-19T07:37:50;16.90;56.70
44729;DHT22;30457;53.590;9.922;2022-10-19T07:42:16;17.00;56.50
44729;DHT22;30457;53.590;9.922;2022-10-19T07:46:41;17.00;56.40
44729;DHT22;30457;53.590;9.922;2022-10-19T07:51:08;17.10;56.10
44729;DHT22;30457;53.590;9.922;2022-10-19T07:55:34;17.20;56.10
44729;DHT22;30457;53.590;9.922;2022-10-19T07:59:59;17.40;56.20
44729;DHT22;30457;53.590;9.922;2022-10-19T08:04:25;17.50;56.20
44729;DHT22;30457;53.590;9.922;2022-10-19T08:08:51;17.60;55.50
44729;DHT22;30457;53.590;9.922;2022-10-19T08:13:17;17.70;55.60
44729;DHT22;30457;53.590;9.922;2022-10-19T08:17:43;17.80;55.20
44729;DHT22;30457;53.590;9.922;2022-10-19T08:22:09;17.90;55.40
44729;DHT22;30457;53.590;9.922;2022-10-19T08:26:36;18.00;55.50
44729;DHT22;30457;53.590;9.922;2022-10-19T08:31:13;18.20;55.30
44729;DHT22;30457;53.590;9.922;2022-10-19T08:35:39;18.30;54.50
44729;DHT22;30457;53.590;9.922;2022-10-19T08:40:06;18.40;54.60
44729;DHT22;30457;53.590;9.922;2022-10-19T08:49:47;18.60;53.60
44729;DHT22;30457;53.590;9.922;2022-10-19T08:54:15;18.70;54.00
44729;DHT22;30457;53.590;9.922;2022-10-19T09:03:23;18.80;53.50
44729;DHT22;30457;53.590;9.922;2022-10-19T09:07:52;18.80;53.00
44729;DHT22;30457;53.590;9.922;2022-10-19T09:12:31;18.90;52.80
44729;DHT22;30457;53.590;9.922;2022-10-19T09:17:02;18.90;52.60
44729;DHT22;30457;53.590;9.922;2022-10-19T09:21:42;18.90;52.80
44729;DHT22;30457;53.590;9.922;2022-10-19T09:26:17;19.00;52.30
44729;DHT22;30457;53.590;9.922;2022-10-19T09:30:45;19.00;52.10
44729;DHT22;30457;53.590;9.922;2022-10-19T09:39:51;19.00;51.20
44729;DHT22;30457;53.590;9.922;2022-10-19T09:44:17;19.00;51.90
44729;DHT22;30457;53.590;9.922;2022-10-19T09:48:52;19.10;51.80
44729;DHT22;30457;53.590;9.922;2022-10-19T09:53:19;19.20;51.90
44729;DHT22;30457;53.590;9.922;2022-10-19T09:57:49;19.30;52.30
44729;DHT22;30457;53.590;9.922;2022-10-19T10:02:17;19.40;51.80
44729;DHT22;30457;53.590;9.922;2022-10-19T10:06:45;19.50;51.00
44729;DHT22;30457;53.590;9.922;2022-10-19T10:11:14;19.60;50.70
44729;DHT22;30457;53.590;9.922;2022-10-19T10:15:43;19.60;50.50
44729;DHT22;30457;53.590;9.922;2022-10-19T10:20:25;19.50;50.50
44729;DHT22;30457;53.590;9.922;2022-10-19T10:24:54;19.40;49.30
44729;DHT22;30457;53.590;9.922;2022-10-19T10:29:23;19.40;49.40
44729;DHT22;30457;53.590;9.922;2022-10-19T10:34:00;19.30;49.30
44729;DHT22;30457;53.590;9.922;2022-10-19T10:38:48;19.20;49.70
44729;DHT22;30457;53.590;9.922;2022-10-19T10:43:17;19.10;49.90
44729;DHT22;30457;53.590;9.922;2022-10-19T10:47:44;19.20;50.10
44729;DHT22;30457;53.590;9.922;2022-10-19T10:52:14;19.20;50.30
44729;DHT22;30457;53.590;9.922;2022-10-19T10:56:43;19.20;50.30
44729;DHT22;30457;53.590;9.922;2022-10-19T11:01:23;19.20;50.30
44729;DHT22;30457;53.590;9.922;2022-10-19T11:05:58;19.20;50.20
44729;DHT22;30457;53.590;9.922;2022-10-19T11:10:35;19.30;49.70
44729;DHT22;30457;53.590;9.922;2022-10-19T11:20:17;19.30;49.60
44729;DHT22;30457;53.590;9.922;2022-10-19T11:34:42;19.30;48.50
44729;DHT22;30457;53.590;9.922;2022-10-19T11:44:20;19.60;48.50
44729;DHT22;30457;53.590;9.922;2022-10-19T11:49:13;19.60;47.90
44729;DHT22;30457;53.590;9.922;2022-10-19T11:58:48;19.70;48.20
44729;DHT22;30457;53.590;9.922;2022-10-19T12:12:30;19.90;47.50
44729;DHT22;30457;53.590;9.922;2022-10-19T12:17:00;19.90;46.90
44729;DHT22;30457;53.590;9.922;2022-10-19T12:21:36;19.90;46.30
44729;DHT22;30457;53.590;9.922;2022-10-19T12:26:03;19.80;46.40
44729;DHT22;30457;53.590;9.922;2022-10-19T12:30:30;19.80;47.70
44729;DHT22;30457;53.590;9.922;2022-10-19T12:35:15;19.70;46.70
44729;DHT22;30457;53.590;9.922;2022-10-19T12:39:48;19.60;46.30
44729;DHT22;30457;53.590;9.922;2022-10-19T12:54:06;19.90;46.80
44729;DHT22;30457;53.590;9.922;2022-10-19T12:58:49;20.00;46.10
44729;DHT22;30457;53.590;9.922;2022-10-19T13:03:20;20.10;45.90
44729;DHT22;30457;53.590;9.922;2022-10-19T13:07:48;20.20;45.90
44729;DHT22;30457;53.590;9.922;2022-10-19T13:16:55;20.30;45.50
44729;DHT22;30457;53.590;9.922;2022-10-19T13:26:32;20.20;44.50
44729;DHT22;30457;53.590;9.922;2022-10-19T13:30:59;20.10;44.40
44729;DHT22;30457;53.590;9.922;2022-10-19T13:35:33;20.00;45.20
44729;DHT22;30457;53.590;9.922;2022-10-19T13:39:59;19.90;44.80
44729;DHT22;30457;53.590;9.922;2022-10-19T13:44:30;19.80;45.40
44729;DHT22;30457;53.590;9.922;2022-10-19T13:49:07;19.80;45.00
44729;DHT22;30457;53.590;9.922;2022-10-19T13:53:40;19.70;44.80
44729;DHT22;30457;53.590;9.922;2022-10-19T13:58:47;19.70;45.40
44729;DHT22;30457;53.590;9.922;2022-10-19T14:03:27;19.70;45.10
44729;DHT22;30457;53.590;9.922;2022-10-19T14:12:58;19.70;45.20
44729;DHT22;30457;53.590;9.922;2022-10-19T14:17:26;19.70;45.60
44729;DHT22;30457;53.590;9.922;2022-10-19T14:21:59;19.70;45.40
44729;DHT22;30457;53.590;9.922;2022-10-19T14:26:29;19.70;45.50
44729;DHT22;30457;53.590;9.922;2022-10-19T14:31:03;19.70;45.60
44729;DHT22;30457;53.590;9.922;2022-10-19T14:35:33;19.60;45.70
44729;DHT22;30457;53.590;9.922;2022-10-19T14:44:45;19.50;45.10
44729;DHT22;30457;53.590;9.922;2022-10-19T14:49:11;19.30;45.70
44729;DHT22;30457;53.590;9.922;2022-10-19T14:53:45;19.30;46.00
44729;DHT22;30457;53.590;9.922;2022-10-19T14:58:15;19.20;46.10
44729;DHT22;30457;53.590;9.922;2022-10-19T15:02:57;19.00;46.00
44729;DHT22;30457;53.590;9.922;2022-10-19T15:07:38;19.00;45.80
44729;DHT22;30457;53.590;9.922;2022-10-19T15:12:13;18.90;46.10
44729;DHT22;30457;53.590;9.922;2022-10-19T15:16:57;18.80;46.20
44729;DHT22;30457;53.590;9.922;2022-10-19T15:21:22;18.70;46.10
44729;DHT22;30457;53.590;9.922;2022-10-19T15:26:01;18.60;46.50
44729;DHT22;30457;53.590;9.922;2022-10-19T15:30:30;18.50;46.00
44729;DHT22;30457;53.590;9.922;2022-10-19T15:34:57;18.40;46.70
44729;DHT22;30457;53.590;9.922;2022-10-19T15:39:28;18.40;46.40
44729;DHT22;30457;53.590;9.922;2022-10-19T15:43:57;18.30;45.90
44729;DHT22;30457;53.590;9.922;2022-10-19T15:48:41;18.20;45.80
44729;DHT22;30457;53.590;9.922;2022-10-19T15:53:14;18.10;45.30
44729;DHT22;30457;53.590;9.922;2022-10-19T15:57:40;18.10;45.30
44729;DHT22;30457;53.590;9.922;2022-10-19T16:02:12;17.90;45.50
44729;DHT22;30457;53.590;9.922;2022-10-19T16:06:40;17.90;45.60
44729;DHT22;30457;53.590;9.922;2022-10-19T16:11:10;17.80;45.50
44729;DHT22;30457;53.590;9.922;2022-10-19T16:15:37;17.70;45.40
44729;DHT22;30457;53.590;9.922;2022-10-19T16:20:03;17.50;45.50
44729;DHT22;30457;53.590;9.922;2022-10-19T16:24:30;17.40;45.80
44729;DHT22;30457;53.590;9.922;2022-10-19T16:28:56;17.30;46.40
44729;DHT22;30457;53.590;9.922;2022-10-19T16:33:22;17.20;46.70
44729;DHT22;30457;53.590;9.922;2022-10-19T16:37:48;17.10;46.80
44729;DHT22;30457;53.590;9.922;2022-10-19T16:42:14;16.90;46.80
44729;DHT22;30457;53.590;9.922;2022-10-19T16:46:40;16.80;47.10
44729;DHT22;30457;53.590;9.922;2022-10-19T16:55:31;16.60;47.30
44729;DHT22;30457;53.590;9.922;2022-10-19T17:00:00;16.40;47.60
44729;DHT22;30457;53.590;9.922;2022-10-19T17:04:26;16.30;47.70
44729;DHT22;30457;53.590;9.922;2022-10-19T17:08:51;16.20;47.90
44729;DHT22;30457;53.590;9.922;2022-10-19T17:13:18;16.10;48.10
44729;DHT22;30457;53.590;9.922;2022-10-19T17:17:43;16.00;48.10
44729;DHT22;30457;53.590;9.922;2022-10-19T17:22:09;15.80;48.10
44729;DHT22;30457;53.590;9.922;2022-10-19T17:26:37;15.70;48.10
44729;DHT22;30457;53.590;9.922;2022-10-19T17:31:05;15.60;48.50
44729;DHT22;30457;53.590;9.922;2022-10-19T17:35:33;15.50;48.70
44729;DHT22;30457;53.590;9.922;2022-10-19T17:39:58;15.40;48.80
44729;DHT22;30457;53.590;9.922;2022-10-19T17:44:24;15.30;48.80
44729;DHT22;30457;53.590;9.922;2022-10-19T17:48:50;15.20;48.80
44729;DHT22;30457;53.590;9.922;2022-10-19T17:53:15;15.10;48.80
44729;DHT22;30457;53.590;9.922;2022-10-19T17:57:42;15.00;49.00
44729;DHT22;30457;53.590;9.922;2022-10-19T18:02:08;14.90;49.00
44729;DHT22;30457;53.590;9.922;2022-10-19T18:06:36;14.80;49.00
44729;DHT22;30457;53.590;9.922;2022-10-19T18:11:05;14.70;49.40
44729;DHT22;30457;53.590;9.922;2022-10-19T18:15:30;14.70;50.00
44729;DHT22;30457;53.590;9.922;2022-10-19T18:19:56;14.60;49.50
44729;DHT22;30457;53.590;9.922;2022-10-19T18:24:22;14.60;49.60
44729;DHT22;30457;53.590;9.922;2022-10-19T18:28:51;14.50;49.70
44729;DHT22;30457;53.590;9.922;2022-10-19T18:33:17;14.40;49.80
44729;DHT22;30457;53.590;9.922;2022-10-19T18:37:43;14.40;50.10
44729;DHT22;30457;53.590;9.922;2022-10-19T18:42:09;14.30;50.10
44729;DHT22;30457;53.590;9.922;2022-10-19T18:46:37;14.20;50.10
44729;DHT22;30457;53.590;9.922;2022-10-19T18:51:05;14.10;50.10
44729;DHT22;30457;53.590;9.922;2022-10-19T18:55:31;14.00;50.20
44729;DHT22;30457;53.590;9.922;2022-10-19T18:59:57;13.90;50.30
44729;DHT22;30457;53.590;9.922;2022-10-19T19:04:23;13.90;50.60
44729;DHT22;30457;53.590;9.922;2022-10-19T19:08:48;13.80;50.70
44729;DHT22;30457;53.590;9.922;2022-10-19T19:13:14;13.70;50.70
44729;DHT22;30457;53.590;9.922;2022-10-19T19:17:40;13.60;50.70
44729;DHT22;30457;53.590;9.922;2022-10-19T19:22:06;13.60;50.80
44729;DHT22;30457;53.590;9.922;2022-10-19T19:26:35;13.50;50.90
44729;DHT22;30457;53.590;9.922;2022-10-19T19:31:03;13.40;51.10
44729;DHT22;30457;53.590;9.922;2022-10-19T19:35:28;13.40;51.30
44729;DHT22;30457;53.590;9.922;2022-10-19T19:39:54;13.30;51.40
44729;DHT22;30457;53.590;9.922;2022-10-19T19:44:20;13.30;51.40
44729;DHT22;30457;53.590;9.922;2022-10-19T19:48:47;13.20;51.30
44729;DHT22;30457;53.590;9.922;2022-10-19T19:53:12;13.20;51.40
44729;DHT22;30457;53.590;9.922;2022-10-19T19:57:38;13.10;51.50
44729;DHT22;30457;53.590;9.922;2022-10-19T20:02:03;13.10;51.70
44729;DHT22;30457;53.590;9.922;2022-10-19T20:06:32;13.00;51.90
44729;DHT22;30457;53.590;9.922;2022-10-19T20:11:02;13.00;52.00
44729;DHT22;30457;53.590;9.922;2022-10-19T20:15:28;13.00;52.20
44729;DHT22;30457;53.590;9.922;2022-10-19T20:19:53;13.00;52.30
44729;DHT22;30457;53.590;9.922;2022-10-19T20:24:19;12.90;52.30
44729;DHT22;30457;53.590;9.922;2022-10-19T20:28:45;13.00;52.40
44729;DHT22;30457;53.590;9.922;2022-10-19T20:33:10;12.90;52.60
44729;DHT22;30457;53.590;9.922;2022-10-19T20:37:37;12.90;52.50
44729;DHT22;30457;53.590;9.922;2022-10-19T20:42:02;12.90;52.50
44729;DHT22;30457;53.590;9.922;2022-10-19T20:46:29;12.90;52.40
44729;DHT22;30457;53.590;9.922;2022-10-19T20:50:54;12.90;52.50
44729;DHT22;30457;53.590;9.922;2022-10-19T20:55:20;12.90;52.50
44729;DHT22;30457;53.590;9.922;2022-10-19T20:59:47;12.90;52.60
44729;DHT22;30457;53.590;9.922;2022-10-19T21:04:14;12.90;52.60
44729;DHT22;30457;53.590;9.922;2022-10-19T21:08:39;12.90;52.70
44729;DHT22;30457;53.590;9.922;2022-10-19T21:13:05;12.90;52.70
44729;DHT22;30457;53.590;9.922;2022-10-19T21:17:30;12.90;52.80
44729;DHT22;30457;53.590;9.922;2022-10-19T21:21:59;12.90;52.80
44729;DHT22;30457;53.590;9.922;2022-10-19T21:26:29;12.80;52.90
44729;DHT22;30457;53.590;9.922;2022-10-19T21:30:54;12.90;53.00
44729;DHT22;30457;53.590;9.922;2022-10-19T21:35:20;12.80;52.90
44729;DHT22;30457;53.590;9.922;2022-10-19T21:39:45;12.80;53.10
44729;DHT22;30457;53.590;9.922;2022-10-19T21:44:12;12.80;53.10
44729;DHT22;30457;53.590;9.922;2022-10-19T21:48:38;12.70;53.10
44729;DHT22;30457;53.590;9.922;2022-10-19T21:53:03;12.70;53.30
44729;DHT22;30457;53.590;9.922;2022-10-19T21:57:29;12.70;53.30
44729;DHT22;30457;53.590;9.922;2022-10-19T22:01:54;12.70;53.40
44729;DHT22;30457;53.590;9.922;2022-10-19T22:06:20;12.70;53.50
44729;DHT22;30457;53.590;9.922;2022-10-19T22:10:46;12.70;53.60
44729;DHT22;30457;53.590;9.922;2022-10-19T22:15:12;12.60;54.20
44729;DHT22;30457;53.590;9.922;2022-10-19T22:19:37;12.60;53.60
44729;DHT22;30457;53.590;9.922;2022-10-19T22:24:05;12.60;53.60
44729;DHT22;30457;53.590;9.922;2022-10-19T22:28:31;12.50;53.70
44729;DHT22;30457;53.590;9.922;2022-10-19T22:32:56;12.50;53.70
44729;DHT22;30457;53.590;9.922;2022-10-19T22:37:22;12.50;53.70
44729;DHT22;30457;53.590;9.922;2022-10-19T22:41:48;12.40;53.70
44729;DHT22;30457;53.590;9.922;2022-10-19T22:46:13;12.40;53.70
44729;DHT22;30457;53.590;9.922;2022-10-19T22:50:39;12.40;53.70
44729;DHT22;30457;53.590;9.922;2022-10-19T22:55:04;12.40;53.90
44729;DHT22;30457;53.590;9.922;2022-10-19T22:59:30;12.30;54.00
44729;DHT22;30457;53.590;9.922;2022-10-19T23:03:56;12.30;53.90
44729;DHT22;30457;53.590;9.922;2022-10-19T23:08:22;12.30;54.00
44729;DHT22;30457;53.590;9.922;2022-10-19T23:12:51;12.20;54.00
44729;DHT22;30457;53.590;9.922;2022-10-19T23:17:17;12.20;54.10
44729;DHT22;30457;53.590;9.922;2022-10-19T23:21:43;12.20;54.10
44729;DHT22;30457;53.590;9.922;2022-10-19T23:30:36;12.10;54.20
44729;DHT22;30457;53.590;9.922;2022-10-19T23:35:02;12.10;54.40
44729;DHT22;30457;53.590;9.922;2022-10-19T23:39:28;12.00;54.40
44729;DHT22;30457;53.590;9.922;2022-10-19T23:43:54;12.00;54.40
44729;DHT22;30457;53.590;9.922;2022-10-19T23:48:19;12.00;54.60
44729;DHT22;30457;53.590;9.922;2022-10-19T23:52:45;11.90;54.60
44729;DHT22;30457;53.590;9.922;2022-10-19T23:57:10;11.90;54.60
